Classifiche di sempre
Migliori tempi personali validi di team tra tutti gli eventi e le stagioni. Ogni team compare una sola volta per divisione.
Cerca per nome e apri la pagina in cui è classificato questo record di divisione.
24,226 team in classifica
| Pos. | Pos. AG | Team | Nazionalità | Categoria età | TempoMiglior tempo | Distacco |
|---|---|---|---|---|---|---|
| 15126 | #6099 | Jack Cyr & Ryan HendersonUSA · M 30-34 · AG #6099 | USA | M 30-34 | 1:14:06 | +25:35 |
| 15127 | #6100 | Guglielmo Fazioli & Gerardo ColapietroITA · M 30-34 · AG #6100 | ITA | M 30-34 | 1:14:06 | +25:35 |
| 15128 | #6101 | Carlos Diogo Lanca Fernandes & Nuno Miguel Faria CachadaPOR · M 30-34 · AG #6101 | POR | M 30-34 | 1:14:06 | +25:35 |
| 15129 | #6102 | Tom Ruijter & Thomas DuijvelshoffNED · M 30-34 · AG #6102 | NED | M 30-34 | 1:14:06 | +25:35 |
| 15130 | #6103 | Tom Ruijter T Ruijter & Thomas Duijvelsho DuijvelshoffNED · M 30-34 · AG #6103 | NED | M 30-34 | 1:14:06 | +25:35 |
| 15131 | #2262 | Niklas Zuther & Felix GehlhoffGER · M 35-39 · AG #2262 | GER | M 35-39 | 1:14:06 | +25:35 |
| 15132 | #1670 | Chaiwat Vinyununthakul & Natakorn NaksuriyunTHA · M 40-44 · AG #1670 | THA | M 40-44 | 1:14:06 | +25:35 |
| 15133 | #237 | Kim Garner & Rob Guyatt-JonesGBR · M 50-54 · AG #237 | GBR | M 50-54 | 1:14:06 | +25:35 |
| 15134 | #349 | 倪 张 & 剑 张CHN · M 45-49 · AG #349 | CHN | M 45-49 | 1:14:06 | +25:35 |
| 15135 | #6104 | Erich Blaesing & Marcello De windM 30-34 · AG #6104 | -- | M 30-34 | 1:14:06 | +25:35 |
| 15136 | #6105 | Carl Cresswell & Colby CresswellGBR · M 30-34 · AG #6105 | GBR | M 30-34 | 1:14:06 | +25:35 |
| 15137 | #1671 | Bo Phillips & Gareth JonesAUS · M 40-44 · AG #1671 | AUS | M 40-44 | 1:14:07 | +25:36 |
| 15138 | #2538 | Bradley Scott & Keegan MuirRSA · M 25-29 · AG #2538 | RSA | M 25-29 | 1:14:07 | +25:36 |
| 15139 | #6106 | Arjen Lodewijks & Tim SwaenNED · M 30-34 · AG #6106 | NED | M 30-34 | 1:14:07 | +25:36 |
| 15140 | #2264 | Fred Dayton & Ryan YoungUSA · M 35-39 · AG #2264 | USA | M 35-39 | 1:14:07 | +25:36 |
| 15141 | #6107 | Thibault Treton & Josselin BlancFRA · M 30-34 · AG #6107 | FRA | M 30-34 | 1:14:07 | +25:36 |
| 15142 | #2539 | Kaine Good & Nathan SheaAUS · M 25-29 · AG #2539 | AUS | M 25-29 | 1:14:07 | +25:36 |
| 15143 | #6109 | Anthony Doyen & Ducourtieux ArnaudFRA · M 30-34 · AG #6109 | FRA | M 30-34 | 1:14:07 | +25:36 |
| 15144 | #6110 | John NG-LAM & Junior PAYNE-SMITHNZL · M 30-34 · AG #6110 | NZL | M 30-34 | 1:14:07 | +25:36 |
| 15145 | #6111 | Danny Mead & Peter BrownIMN · M 30-34 · AG #6111 | IMN | M 30-34 | 1:14:07 | +25:36 |
| 15146 | #6112 | Joachim Bonheur & Kevin PamFRA · M 30-34 · AG #6112 | FRA | M 30-34 | 1:14:07 | +25:36 |
| 15147 | -- | Jean-Baptiste Lesage & Iban MeyerFRA · M MU29 | FRA | M MU29 | 1:14:07 | +25:36 |
| 15148 | #6113 | Ryan Smith & Sam DunnGBR · M 30-34 · AG #6113 | GBR | M 30-34 | 1:14:07 | +25:36 |
| 15149 | #6114 | Hamilton Bromhead & Carson RobertsUSA · M 30-34 · AG #6114 | USA | M 30-34 | 1:14:07 | +25:36 |
| 15150 | #2265 | Yvan-Alexis Milosevic & Bernadou EdouardFRA · M 35-39 · AG #2265 | FRA | M 35-39 | 1:14:07 | +25:36 |
Pagina 606 di 970